createdAt,value
2019-06-27T00:01:42.113Z,14.91
2019-06-27T00:04:12.598Z,14.80
2019-06-27T00:06:43.261Z,14.89
2019-06-27T00:09:13.858Z,14.78
2019-06-27T00:11:44.366Z,14.80
2019-06-27T00:14:14.768Z,14.82
2019-06-27T00:16:45.328Z,14.88
2019-06-27T00:19:15.897Z,14.73
2019-06-27T00:21:46.399Z,14.83
2019-06-27T00:24:16.846Z,14.79
2019-06-27T00:26:56.466Z,14.77
2019-06-27T00:29:19.512Z,14.83
2019-06-27T00:31:50.052Z,14.80
2019-06-27T00:34:20.552Z,14.74
2019-06-27T00:36:51.098Z,14.67
2019-06-27T00:39:21.592Z,14.81
2019-06-27T00:41:52.298Z,14.77
2019-06-27T00:44:22.763Z,14.73
2019-06-27T00:46:53.283Z,14.65
2019-06-27T00:49:23.797Z,14.91
2019-06-27T00:51:54.295Z,14.83
2019-06-27T00:54:24.803Z,14.60
2019-06-27T00:56:55.313Z,14.49
2019-06-27T00:59:25.872Z,14.51
2019-06-27T01:01:56.412Z,14.44
2019-06-27T01:04:26.874Z,14.49
2019-06-27T01:06:57.347Z,14.30
2019-06-27T01:09:27.886Z,14.36
2019-06-27T01:11:58.357Z,14.33
2019-06-27T01:14:28.833Z,14.24
2019-06-27T01:16:59.397Z,14.10
2019-06-27T01:19:29.910Z,13.99
2019-06-27T01:22:00.418Z,14.12
2019-06-27T01:24:30.893Z,14.05
2019-06-27T01:27:01.401Z,14.06
2019-06-27T01:29:31.994Z,13.95
2019-06-27T01:32:02.509Z,13.92
2019-06-27T01:34:33.004Z,13.96
2019-06-27T01:37:03.478Z,13.86
2019-06-27T01:39:34.005Z,13.90
2019-06-27T01:42:04.495Z,13.99
2019-06-27T01:44:43.889Z,13.89
2019-06-27T01:47:14.418Z,13.91
2019-06-27T01:49:44.903Z,13.87
2019-06-27T01:52:15.421Z,13.84
2019-06-27T01:54:45.849Z,13.92
2019-06-27T01:57:17.644Z,13.92
2019-06-27T01:59:48.208Z,13.85
2019-06-27T02:02:18.703Z,13.88
2019-06-27T02:04:49.248Z,13.98
2019-06-27T02:07:19.761Z,13.88
2019-06-27T02:09:50.319Z,13.76
2019-06-27T02:12:20.960Z,13.68
2019-06-27T02:14:51.505Z,13.64
2019-06-27T02:17:22.010Z,13.58
2019-06-27T02:19:52.545Z,13.63
2019-06-27T02:22:23.048Z,13.58
2019-06-27T02:24:53.533Z,13.52
2019-06-27T02:27:23.995Z,13.35
2019-06-27T02:29:54.526Z,13.39
2019-06-27T02:32:24.996Z,13.40
2019-06-27T02:34:55.493Z,13.39
2019-06-27T02:37:25.985Z,13.39
2019-06-27T02:39:56.481Z,13.35
2019-06-27T02:42:26.980Z,13.34
2019-06-27T02:44:57.541Z,13.35
2019-06-27T02:47:28.058Z,13.41
2019-06-27T02:49:58.565Z,13.45
2019-06-27T02:52:29.085Z,13.47
2019-06-27T02:54:59.516Z,13.36
2019-06-27T02:57:30.022Z,13.41
2019-06-27T03:00:00.556Z,13.41
2019-06-27T03:02:31.095Z,13.49
2019-06-27T03:05:01.573Z,13.42
2019-06-27T03:07:32.167Z,13.47
2019-06-27T03:10:02.763Z,13.52
2019-06-27T03:12:33.253Z,13.54
2019-06-27T03:15:03.797Z,13.68
2019-06-27T03:17:34.360Z,13.63
2019-06-27T03:20:06.285Z,13.69
2019-06-27T03:22:36.847Z,13.69
2019-06-27T03:25:07.644Z,13.64
2019-06-27T03:27:38.139Z,13.69
2019-06-27T03:30:09.173Z,13.69
2019-06-27T03:32:39.716Z,13.72
2019-06-27T03:35:10.236Z,13.76
2019-06-27T03:37:40.806Z,13.71
2019-06-27T03:40:12.218Z,13.80
2019-06-27T03:42:42.707Z,13.79
2019-06-27T03:45:15.768Z,13.75
2019-06-27T03:47:45.549Z,13.78
2019-06-27T03:50:17.037Z,13.81
2019-06-27T03:52:47.661Z,13.86
2019-06-27T03:55:18.205Z,13.94
2019-06-27T03:57:48.725Z,13.97
2019-06-27T04:00:29.733Z,13.93
2019-06-27T04:03:00.290Z,13.90
2019-06-27T04:05:30.842Z,14.05
2019-06-27T04:08:01.557Z,13.95
2019-06-27T04:13:01.318Z,14.07
2019-06-27T04:15:31.874Z,13.97
2019-06-27T04:18:02.393Z,14.05
2019-06-27T04:20:32.944Z,14.07
2019-06-27T04:23:03.482Z,14.18
2019-06-27T04:25:34.018Z,14.14
2019-06-27T04:28:04.549Z,14.20
2019-06-27T04:30:35.141Z,14.25
2019-06-27T04:33:05.657Z,14.22
2019-06-27T04:35:36.167Z,14.24
2019-06-27T04:38:06.778Z,14.15
2019-06-27T04:40:37.414Z,14.12
2019-06-27T04:43:07.899Z,13.99
2019-06-27T04:45:38.427Z,14.09
2019-06-27T04:48:08.953Z,14.05
2019-06-27T04:50:39.485Z,14.05
2019-06-27T04:53:10.053Z,14.09
2019-06-27T04:55:40.587Z,14.24
2019-06-27T04:58:11.094Z,14.25
2019-06-27T05:00:41.659Z,14.33
2019-06-27T05:03:12.158Z,14.29
2019-06-27T05:05:42.653Z,14.12
2019-06-27T05:08:14.943Z,14.25
2019-06-27T05:10:45.693Z,14.46
2019-06-27T05:13:17.174Z,14.38
2019-06-27T05:15:47.687Z,14.41
2019-06-27T05:18:18.213Z,14.28
2019-06-27T05:20:50.795Z,14.33
2019-06-27T05:23:21.389Z,14.33
2019-06-27T05:25:52.887Z,14.35
2019-06-27T05:28:24.515Z,14.49
2019-06-27T05:30:55.110Z,14.43
2019-06-27T05:33:25.637Z,14.49
2019-06-27T05:35:56.155Z,14.48
2019-06-27T05:38:26.691Z,14.65
2019-06-27T05:40:57.194Z,14.87
2019-06-27T05:43:27.688Z,14.74
2019-06-27T05:45:58.311Z,14.75
2019-06-27T05:48:28.811Z,14.91
2019-06-27T05:50:59.404Z,14.81
2019-06-27T05:53:29.970Z,15.12
2019-06-27T05:56:00.479Z,15.18
2019-06-27T05:58:30.978Z,15.16
2019-06-27T06:01:01.650Z,15.20
2019-06-27T06:03:32.236Z,15.27
2019-06-27T06:06:02.759Z,15.45
2019-06-27T06:08:33.229Z,15.47
2019-06-27T06:11:03.752Z,15.42
2019-06-27T06:13:34.271Z,15.45
2019-06-27T06:16:04.805Z,15.26
2019-06-27T06:18:35.415Z,15.38
2019-06-27T06:21:06.048Z,15.39
2019-06-27T06:23:36.528Z,15.25
2019-06-27T06:26:07.017Z,15.39
2019-06-27T06:28:37.631Z,15.25
2019-06-27T06:31:08.178Z,15.50
2019-06-27T06:33:38.685Z,15.40
2019-06-27T06:36:09.240Z,15.17
2019-06-27T06:38:39.777Z,15.19
2019-06-27T06:41:10.273Z,15.16
2019-06-27T06:43:40.795Z,15.28
2019-06-27T06:46:11.338Z,15.31
2019-06-27T06:48:41.835Z,15.52
2019-06-27T06:51:12.443Z,15.51
2019-06-27T06:53:42.953Z,15.46
2019-06-27T06:56:13.480Z,15.28
2019-06-27T06:58:44.028Z,15.48
2019-06-27T07:01:14.537Z,15.42
2019-06-27T07:03:45.139Z,15.50
2019-06-27T07:06:15.642Z,15.58
2019-06-27T07:08:46.300Z,15.80
2019-06-27T07:11:16.867Z,15.85
2019-06-27T07:13:47.369Z,15.66
2019-06-27T07:16:17.881Z,15.46
2019-06-27T07:18:48.406Z,15.61
2019-06-27T07:21:18.945Z,15.61
2019-06-27T07:23:49.691Z,15.73
2019-06-27T07:26:22.417Z,15.79
2019-06-27T07:28:52.371Z,15.74
2019-06-27T07:31:22.982Z,15.59
2019-06-27T07:33:53.487Z,15.66
2019-06-27T07:36:23.900Z,15.80
2019-06-27T07:38:54.420Z,15.99
2019-06-27T07:41:24.939Z,15.69
2019-06-27T07:43:55.458Z,15.91
2019-06-27T07:46:26.194Z,15.95
2019-06-27T07:48:56.708Z,15.87
2019-06-27T07:51:27.505Z,16.11
2019-06-27T07:53:58.129Z,16.05
2019-06-27T07:56:28.642Z,16.10
2019-06-27T07:58:59.205Z,16.05
2019-06-27T08:01:35.385Z,16.07
2019-06-27T08:04:02.088Z,16.21
2019-06-27T08:06:32.603Z,16.26
2019-06-27T08:09:03.139Z,16.17
2019-06-27T08:11:33.661Z,16.22
2019-06-27T08:14:04.203Z,16.20
2019-06-27T08:16:34.738Z,16.06
2019-06-27T08:19:05.292Z,16.04
2019-06-27T08:21:35.795Z,16.12
2019-06-27T08:24:06.646Z,16.01
2019-06-27T08:26:37.055Z,16.02
2019-06-27T08:29:07.581Z,16.20
2019-06-27T08:31:51.009Z,16.42
2019-06-27T08:34:10.357Z,16.60
2019-06-27T08:36:40.973Z,16.46
2019-06-27T08:39:11.523Z,16.67
2019-06-27T08:41:42.015Z,16.54
2019-06-27T08:44:12.517Z,16.62
2019-06-27T08:46:43.127Z,16.57
2019-06-27T08:49:13.663Z,16.44
2019-06-27T08:51:44.191Z,16.72
2019-06-27T08:54:14.734Z,16.57
2019-06-27T08:56:45.342Z,16.60
2019-06-27T08:59:15.913Z,16.45
2019-06-27T09:01:46.430Z,16.55
2019-06-27T09:04:17.063Z,16.38
2019-06-27T09:06:47.660Z,16.51
2019-06-27T09:09:18.494Z,16.80
2019-06-27T09:11:49.202Z,16.78
2019-06-27T09:14:19.910Z,16.71
2019-06-27T09:16:50.665Z,16.46
2019-06-27T09:19:21.520Z,16.08
2019-06-27T09:21:52.378Z,16.25
2019-06-27T09:24:23.748Z,16.46
2019-06-27T09:26:54.306Z,16.82
2019-06-27T09:29:24.832Z,16.78
2019-06-27T09:31:55.488Z,16.78
2019-06-27T09:34:26.098Z,16.86
2019-06-27T09:36:56.698Z,16.79
2019-06-27T09:39:27.351Z,16.91
2019-06-27T09:41:57.898Z,16.76
2019-06-27T09:44:28.631Z,16.81
2019-06-27T09:46:59.334Z,16.97
2019-06-27T09:49:29.834Z,17.16
2019-06-27T09:52:00.378Z,17.13
2019-06-27T09:54:30.989Z,17.27
2019-06-27T09:57:01.596Z,17.07
2019-06-27T09:59:32.175Z,16.97
2019-06-27T10:02:02.749Z,16.94
2019-06-27T10:04:33.301Z,17.19
2019-06-27T10:07:04.031Z,17.52
2019-06-27T10:09:34.684Z,17.19
2019-06-27T10:12:05.282Z,17.35
2019-06-27T10:14:35.881Z,17.20
2019-06-27T10:17:06.451Z,17.38
2019-06-27T10:19:37.311Z,17.38
2019-06-27T10:22:07.906Z,17.54
2019-06-27T10:24:38.511Z,17.94
2019-06-27T10:27:09.128Z,17.79
2019-06-27T10:29:39.707Z,17.75
2019-06-27T10:32:10.318Z,17.99
2019-06-27T10:34:40.838Z,18.15
2019-06-27T10:37:11.431Z,18.07
2019-06-27T10:39:42.525Z,18.05
2019-06-27T10:42:13.233Z,18.30
2019-06-27T10:44:43.829Z,18.30
2019-06-27T10:47:14.434Z,18.15
2019-06-27T10:49:45.035Z,17.78
2019-06-27T10:52:15.608Z,17.88
2019-06-27T10:54:46.354Z,18.01
2019-06-27T10:57:19.052Z,17.83
2019-06-27T10:59:49.357Z,18.03
2019-06-27T11:02:19.976Z,17.92
2019-06-27T11:04:50.557Z,17.67
2019-06-27T11:07:21.164Z,17.98
2019-06-27T11:09:51.792Z,17.90
2019-06-27T11:12:22.788Z,17.79
2019-06-27T11:14:59.025Z,18.08
2019-06-27T11:17:25.806Z,18.35
2019-06-27T11:19:56.370Z,18.37
2019-06-27T11:22:26.977Z,18.32
2019-06-27T11:24:57.706Z,18.19
2019-06-27T11:27:28.240Z,18.12
2019-06-27T11:29:58.744Z,18.07
2019-06-27T11:32:29.273Z,18.11
2019-06-27T11:34:59.835Z,17.83
2019-06-27T11:37:30.315Z,17.63
2019-06-27T11:40:00.857Z,17.69
2019-06-27T11:42:31.395Z,18.00
2019-06-27T11:45:01.963Z,18.46
2019-06-27T11:47:34.575Z,18.50
2019-06-27T11:50:04.804Z,18.47
2019-06-27T11:52:35.279Z,18.63
2019-06-27T11:55:05.880Z,18.85
2019-06-27T11:57:36.461Z,18.95
2019-06-27T12:00:07.440Z,18.55
2019-06-27T12:02:37.971Z,18.23
2019-06-27T12:05:08.691Z,18.59
2019-06-27T12:07:39.259Z,18.84
2019-06-27T12:10:10.201Z,18.23
2019-06-27T12:12:40.844Z,18.31
2019-06-27T12:15:12.051Z,18.35
2019-06-27T12:17:42.581Z,18.30
2019-06-27T12:20:13.836Z,18.22
2019-06-27T12:22:44.399Z,18.10
2019-06-27T12:25:15.211Z,18.51
2019-06-27T12:27:45.730Z,18.32
2019-06-27T12:30:16.481Z,18.18
2019-06-27T12:32:52.508Z,18.33
2019-06-27T12:35:19.775Z,18.47
2019-06-27T12:37:50.304Z,18.70
2019-06-27T12:40:21.090Z,18.28
2019-06-27T12:42:51.672Z,18.12
2019-06-27T12:45:22.397Z,17.88
2019-06-27T12:47:52.966Z,17.69
2019-06-27T12:50:23.476Z,17.98
2019-06-27T12:52:54.093Z,18.04
2019-06-27T12:55:24.610Z,18.02
2019-06-27T12:57:55.577Z,17.84
2019-06-27T13:00:26.164Z,17.81
2019-06-27T13:02:56.740Z,17.71
2019-06-27T13:05:27.242Z,17.65
2019-06-27T13:07:57.856Z,17.77
2019-06-27T13:10:38.116Z,17.80
2019-06-27T13:13:08.716Z,17.86
2019-06-27T13:15:39.212Z,18.03
2019-06-27T13:18:09.772Z,18.13
2019-06-27T13:20:56.677Z,17.77
2019-06-27T13:23:12.614Z,17.72
2019-06-27T13:25:43.160Z,17.59
2019-06-27T13:28:13.800Z,17.50
2019-06-27T13:30:44.298Z,17.46
2019-06-27T13:33:14.849Z,17.64
2019-06-27T13:35:48.983Z,17.73
2019-06-27T13:38:17.613Z,17.72
2019-06-27T13:40:48.082Z,18.00
2019-06-27T13:43:18.654Z,17.32
2019-06-27T13:45:49.250Z,17.39
2019-06-27T13:48:19.790Z,17.60
2019-06-27T13:50:50.306Z,17.52
2019-06-27T13:53:20.977Z,17.50
2019-06-27T13:55:51.537Z,17.70
2019-06-27T13:58:22.123Z,17.47
2019-06-27T14:00:52.669Z,17.35
2019-06-27T14:03:23.226Z,17.21
2019-06-27T14:05:53.862Z,17.20
2019-06-27T14:08:26.345Z,17.27
2019-06-27T14:10:56.595Z,17.37
2019-06-27T14:13:27.096Z,17.46
2019-06-27T14:15:57.657Z,17.51
2019-06-27T14:18:28.142Z,17.48
2019-06-27T14:20:58.681Z,17.75
2019-06-27T14:23:29.428Z,17.50
2019-06-27T14:26:00.016Z,17.52
2019-06-27T14:28:30.557Z,17.71
2019-06-27T14:31:01.145Z,17.85
2019-06-27T14:33:31.657Z,17.76
2019-06-27T14:36:02.302Z,17.71
2019-06-27T14:38:52.100Z,17.51
2019-06-27T14:41:22.754Z,17.54
2019-06-27T14:43:53.382Z,17.43
2019-06-27T14:46:23.940Z,17.46
2019-06-27T14:48:56.792Z,17.34
2019-06-27T14:51:26.842Z,17.49
2019-06-27T14:53:57.349Z,18.06
2019-06-27T14:56:28.376Z,18.73
2019-06-27T14:58:59.019Z,18.61
2019-06-27T15:01:29.567Z,18.59
2019-06-27T15:04:00.271Z,18.28
2019-06-27T15:06:31.748Z,18.16
2019-06-27T15:09:02.799Z,18.11
2019-06-27T15:11:33.531Z,18.10
2019-06-27T15:14:04.175Z,19.11
2019-06-27T15:16:35.700Z,19.59
2019-06-27T15:19:06.250Z,18.91
2019-06-27T15:21:36.903Z,18.84
2019-06-27T15:24:07.474Z,18.60
2019-06-27T15:26:38.087Z,18.23
2019-06-27T15:29:08.691Z,18.46
2019-06-27T15:31:39.245Z,18.94
2019-06-27T15:34:09.892Z,19.72
2019-06-27T15:36:40.466Z,19.95
2019-06-27T15:39:12.133Z,19.27
2019-06-27T15:41:42.724Z,19.55
2019-06-27T15:44:20.332Z,19.65
2019-06-27T15:46:49.183Z,18.56
2019-06-27T15:49:19.798Z,18.39
2019-06-27T15:51:50.366Z,18.31
2019-06-27T15:54:20.899Z,18.44
2019-06-27T15:56:51.558Z,18.70
2019-06-27T15:59:22.110Z,18.60
2019-06-27T16:01:52.676Z,18.40
2019-06-27T16:04:32.634Z,18.33
2019-06-27T16:06:55.488Z,18.90
2019-06-27T16:09:26.096Z,18.78
2019-06-27T16:11:56.672Z,19.24
2019-06-27T16:14:27.302Z,19.61
2019-06-27T16:16:57.793Z,20.27
2019-06-27T16:19:28.401Z,20.21
2019-06-27T16:21:58.915Z,20.32
2019-06-27T16:24:29.601Z,20.40
2019-06-27T16:27:00.223Z,19.91
2019-06-27T16:29:30.776Z,19.39
2019-06-27T16:32:01.466Z,19.10
2019-06-27T16:34:32.079Z,18.91
2019-06-27T16:37:02.563Z,18.47
2019-06-27T16:39:33.110Z,18.14
2019-06-27T16:42:03.712Z,18.19
2019-06-27T16:44:34.195Z,18.26
2019-06-27T16:47:04.684Z,17.94
2019-06-27T16:49:35.259Z,17.97
2019-06-27T16:52:10.739Z,17.86
2019-06-27T16:54:41.421Z,17.73
2019-06-27T16:57:12.047Z,17.44
2019-06-27T16:59:42.638Z,17.50
2019-06-27T17:02:13.196Z,17.31
2019-06-27T17:04:43.754Z,17.17
2019-06-27T17:07:14.343Z,16.99
2019-06-27T17:09:44.989Z,16.92
2019-06-27T17:12:15.510Z,17.06
2019-06-27T17:14:46.008Z,17.07
2019-06-27T17:17:16.691Z,17.10
2019-06-27T17:19:47.306Z,17.05
2019-06-27T17:22:17.838Z,16.95
2019-06-27T17:24:48.470Z,16.88
2019-06-27T17:27:19.083Z,16.80
2019-06-27T17:29:49.622Z,16.77
2019-06-27T17:32:20.158Z,16.88
2019-06-27T17:34:50.728Z,16.94
2019-06-27T17:37:21.128Z,16.94
2019-06-27T17:39:51.727Z,17.02
2019-06-27T17:42:22.230Z,17.16
2019-06-27T17:44:52.797Z,16.87
2019-06-27T17:47:23.332Z,16.71
2019-06-27T17:49:53.830Z,16.67
2019-06-27T17:52:24.707Z,16.78
2019-06-27T17:54:55.306Z,16.82
2019-06-27T17:57:25.827Z,17.00
2019-06-27T17:59:56.360Z,16.92
2019-06-27T18:02:26.901Z,16.86
2019-06-27T18:04:57.554Z,16.67
2019-06-27T18:07:28.141Z,16.68
2019-06-27T18:09:58.764Z,16.64
2019-06-27T18:12:29.182Z,16.59
2019-06-27T18:14:59.691Z,16.57
2019-06-27T18:17:33.828Z,16.65
2019-06-27T18:20:02.542Z,16.42
2019-06-27T18:22:33.107Z,16.42
2019-06-27T18:25:03.659Z,16.35
2019-06-27T18:27:34.081Z,16.38
2019-06-27T18:30:04.698Z,16.55
2019-06-27T18:32:35.255Z,16.62
2019-06-27T18:35:06.656Z,16.56
2019-06-27T18:37:37.157Z,16.44
2019-06-27T18:40:08.253Z,16.33
2019-06-27T18:42:38.723Z,16.28
2019-06-27T18:45:10.528Z,16.23
2019-06-27T18:47:41.189Z,16.26
2019-06-27T18:50:12.044Z,16.14
2019-06-27T18:52:42.546Z,16.11
2019-06-27T18:55:13.147Z,16.02
2019-06-27T18:57:43.705Z,16.06
2019-06-27T19:00:15.099Z,16.00
2019-06-27T19:02:45.714Z,15.94
2019-06-27T19:05:17.187Z,15.95
2019-06-27T19:07:47.782Z,15.94
2019-06-27T19:10:18.696Z,15.90
2019-06-27T19:12:49.330Z,15.83
2019-06-27T19:15:19.857Z,15.82
2019-06-27T19:17:50.620Z,15.77
2019-06-27T19:20:36.336Z,15.69
2019-06-27T19:23:28.754Z,15.73
2019-06-27T19:26:00.765Z,15.67
2019-06-27T19:28:31.344Z,15.55
2019-06-27T19:31:02.118Z,15.57
2019-06-27T19:33:32.711Z,15.52
2019-06-27T19:36:03.603Z,15.49
2019-06-27T19:38:34.232Z,15.44
2019-06-27T19:41:05.662Z,15.51
2019-06-27T19:43:36.257Z,15.56
2019-06-27T19:46:08.029Z,15.62
2019-06-27T19:48:38.643Z,15.52
2019-06-27T19:51:09.357Z,15.48
2019-06-27T19:53:40.135Z,15.46
2019-06-27T19:56:10.784Z,15.36
2019-06-27T19:58:41.522Z,15.27
2019-06-27T20:01:12.230Z,15.24
2019-06-27T20:03:42.844Z,15.28
2019-06-27T20:06:13.427Z,15.09
2019-06-27T20:08:43.956Z,15.05
2019-06-27T20:11:14.493Z,14.93
2019-06-27T20:13:45.094Z,14.95
2019-06-27T20:16:15.755Z,14.85
2019-06-27T20:18:46.272Z,14.97
2019-06-27T20:21:16.838Z,14.97
2019-06-27T20:23:47.444Z,14.91
2019-06-27T20:26:18.032Z,15.07
2019-06-27T20:28:48.736Z,14.97
2019-06-27T20:31:20.863Z,14.86
2019-06-27T20:33:51.420Z,14.80
2019-06-27T20:36:22.004Z,14.79
2019-06-27T20:38:52.588Z,14.76
2019-06-27T20:41:23.131Z,14.73
2019-06-27T20:43:53.707Z,14.69
2019-06-27T20:46:24.273Z,14.75
2019-06-27T20:48:54.858Z,14.69
2019-06-27T20:51:25.397Z,14.73
2019-06-27T20:53:55.933Z,14.74
2019-06-27T20:56:26.468Z,14.76
2019-06-27T20:58:57.033Z,14.78
2019-06-27T21:01:31.176Z,14.77
2019-06-27T21:03:59.950Z,14.79
2019-06-27T21:06:30.444Z,14.69
2019-06-27T21:09:00.959Z,14.75
2019-06-27T21:11:31.591Z,14.76
2019-06-27T21:14:02.161Z,14.75
2019-06-27T21:16:32.677Z,14.74
2019-06-27T21:19:03.197Z,14.72
2019-06-27T21:21:33.794Z,14.86
2019-06-27T21:24:04.377Z,14.73
2019-06-27T21:26:34.916Z,14.75
2019-06-27T21:29:05.455Z,14.64
2019-06-27T21:31:36.068Z,14.77
2019-06-27T21:34:06.593Z,14.83
2019-06-27T21:36:37.296Z,14.81
2019-06-27T21:39:08.250Z,14.80
2019-06-27T21:41:38.985Z,14.80
2019-06-27T21:44:09.557Z,14.77
2019-06-27T21:46:40.093Z,14.67
2019-06-27T21:49:11.573Z,14.81
2019-06-27T21:51:42.205Z,14.74
2019-06-27T21:54:12.804Z,14.68
2019-06-27T21:56:43.299Z,14.74
2019-06-27T21:59:13.799Z,14.77
2019-06-27T22:01:44.423Z,14.69
2019-06-27T22:04:15.000Z,14.63
2019-06-27T22:06:45.525Z,14.69
2019-06-27T22:09:24.520Z,14.77
2019-06-27T22:11:48.346Z,14.78
2019-06-27T22:14:18.886Z,14.80
2019-06-27T22:16:49.413Z,14.81
2019-06-27T22:19:19.931Z,14.71
2019-06-27T22:21:50.452Z,14.81
2019-06-27T22:24:21.003Z,14.78
2019-06-27T22:26:51.514Z,14.76
2019-06-27T22:29:21.973Z,14.56
2019-06-27T22:31:52.550Z,14.61
2019-06-27T22:34:23.021Z,14.70
2019-06-27T22:36:56.021Z,14.76
2019-06-27T22:39:43.844Z,14.66
2019-06-27T22:42:32.069Z,14.73
2019-06-27T22:45:20.708Z,14.62
2019-06-27T22:48:08.925Z,14.52
2019-06-27T22:51:11.473Z,14.55
2019-06-27T22:53:51.738Z,14.60
2019-06-27T22:56:22.324Z,14.55
2019-06-27T22:58:52.925Z,14.47
2019-06-27T23:01:23.476Z,14.40
2019-06-27T23:03:54.088Z,14.42
2019-06-27T23:06:24.827Z,14.51
2019-06-27T23:08:55.694Z,14.56
2019-06-27T23:11:26.513Z,14.51
2019-06-27T23:13:59.471Z,14.49
2019-06-27T23:16:29.968Z,14.50
2019-06-27T23:19:00.549Z,14.43
2019-06-27T23:21:31.060Z,14.61
2019-06-27T23:24:01.788Z,14.48
2019-06-27T23:26:32.437Z,14.42
2019-06-27T23:29:03.067Z,14.49
2019-06-27T23:31:33.596Z,14.46
2019-06-27T23:34:03.951Z,14.50
2019-06-27T23:36:34.411Z,14.56
2019-06-27T23:39:05.002Z,14.58
2019-06-27T23:41:35.652Z,14.58
2019-06-27T23:44:06.155Z,14.57
2019-06-27T23:46:43.582Z,14.57
2019-06-27T23:49:14.111Z,14.61
2019-06-27T23:51:44.845Z,14.50
2019-06-27T23:54:15.334Z,14.48
2019-06-27T23:56:45.817Z,14.40
2019-06-27T23:59:16.404Z,14.48
